createdAt,value
2022-12-03T00:01:03.700Z,3.90
2022-12-03T00:03:30.706Z,3.70
2022-12-03T00:05:57.500Z,3.40
2022-12-03T00:08:24.226Z,3.60
2022-12-03T00:10:50.895Z,3.80
2022-12-03T00:13:17.585Z,4.10
2022-12-03T00:15:44.451Z,3.70
2022-12-03T00:18:11.242Z,4.40
2022-12-03T00:20:37.926Z,4.00
2022-12-03T00:23:04.606Z,4.00
2022-12-03T00:25:31.288Z,4.30
2022-12-03T00:27:57.955Z,3.70
2022-12-03T00:30:24.691Z,3.60
2022-12-03T00:32:51.511Z,3.40
2022-12-03T00:35:18.269Z,3.60
2022-12-03T00:37:45.046Z,3.10
2022-12-03T00:40:12.364Z,3.60
2022-12-03T00:42:39.495Z,3.80
2022-12-03T00:45:06.688Z,3.80
2022-12-03T00:47:33.413Z,3.90
2022-12-03T00:50:00.245Z,3.30
2022-12-03T00:52:27.169Z,4.00
2022-12-03T00:54:54.226Z,3.90
2022-12-03T00:57:21.099Z,4.00
2022-12-03T00:59:47.921Z,3.90
2022-12-03T01:02:14.814Z,3.90
2022-12-03T01:04:41.571Z,3.40
2022-12-03T01:07:08.437Z,3.50
2022-12-03T01:09:35.228Z,4.10
2022-12-03T01:12:01.917Z,4.00
2022-12-03T01:14:30.806Z,3.70
2022-12-03T01:16:57.659Z,3.50
2022-12-03T01:19:24.949Z,3.70
2022-12-03T01:21:51.901Z,4.10
2022-12-03T01:24:19.416Z,3.90
2022-12-03T01:26:46.217Z,3.90
2022-12-03T01:29:13.428Z,3.70
2022-12-03T01:31:59.143Z,3.30
2022-12-03T01:34:25.932Z,3.60
2022-12-03T01:36:52.771Z,3.80
2022-12-03T01:39:19.848Z,3.80
2022-12-03T01:41:48.696Z,3.90
2022-12-03T01:44:19.803Z,3.90
2022-12-03T01:46:47.619Z,3.90
2022-12-03T01:49:23.507Z,3.60
2022-12-03T01:51:52.451Z,3.80
2022-12-03T01:54:22.724Z,3.90
2022-12-03T01:56:49.730Z,4.00
2022-12-03T01:59:19.533Z,4.00
2022-12-03T02:01:46.375Z,4.30
2022-12-03T02:04:19.586Z,4.10
2022-12-03T02:06:46.339Z,3.80
2022-12-03T02:09:13.962Z,4.00
2022-12-03T02:11:45.132Z,3.90
2022-12-03T02:14:15.935Z,4.20
2022-12-03T02:16:43.870Z,4.20
2022-12-03T02:19:21.570Z,4.30
2022-12-03T02:22:02.443Z,3.90
2022-12-03T02:24:37.251Z,4.10
2022-12-03T02:27:04.060Z,4.20
2022-12-03T02:29:31.157Z,4.00
2022-12-03T02:31:59.243Z,4.20
2022-12-03T02:34:40.502Z,3.60
2022-12-03T02:37:12.359Z,4.20
2022-12-03T02:39:49.706Z,3.90
2022-12-03T02:42:35.555Z,3.70
2022-12-03T02:45:36.031Z,3.70
2022-12-03T02:48:11.586Z,4.40
2022-12-03T02:50:51.507Z,4.30
2022-12-03T02:53:22.020Z,4.30
2022-12-03T02:55:49.181Z,4.50
2022-12-03T02:58:15.999Z,4.30
2022-12-03T03:00:43.877Z,3.80
2022-12-03T03:03:11.567Z,4.20
2022-12-03T03:05:40.123Z,4.40
2022-12-03T03:08:08.825Z,3.80
2022-12-03T03:10:37.969Z,4.00
2022-12-03T03:13:10.057Z,4.40
2022-12-03T03:15:40.540Z,3.70
2022-12-03T03:18:08.097Z,3.90
2022-12-03T03:20:35.509Z,4.00
2022-12-03T03:23:07.177Z,4.20
2022-12-03T03:25:34.034Z,3.70
2022-12-03T03:28:00.878Z,3.80
2022-12-03T03:30:27.710Z,4.10
2022-12-03T03:32:54.650Z,4.40
2022-12-03T03:35:22.815Z,4.30
2022-12-03T03:37:49.598Z,4.20
2022-12-03T03:40:16.478Z,4.10
2022-12-03T03:42:43.398Z,3.80
2022-12-03T03:45:10.646Z,3.80
2022-12-03T03:47:37.554Z,4.40
2022-12-03T03:50:05.283Z,4.00
2022-12-03T03:52:32.081Z,4.00
2022-12-03T03:54:58.954Z,3.80
2022-12-03T03:57:26.190Z,4.20
2022-12-03T03:59:52.947Z,4.00
2022-12-03T04:02:21.364Z,3.70
2022-12-03T04:04:48.742Z,4.30
2022-12-03T04:07:16.439Z,4.30
2022-12-03T04:09:43.676Z,4.40
2022-12-03T04:12:31.450Z,4.30
2022-12-03T04:14:58.783Z,4.30
2022-12-03T04:17:26.089Z,4.20
2022-12-03T04:19:52.870Z,4.50
2022-12-03T04:22:39.925Z,4.30
2022-12-03T04:25:26.623Z,4.10
2022-12-03T04:28:12.681Z,4.00
2022-12-03T04:30:41.489Z,4.20
2022-12-03T04:33:27.370Z,4.40
2022-12-03T04:35:54.200Z,3.80
2022-12-03T04:38:21.178Z,3.70
2022-12-03T04:41:06.181Z,3.60
2022-12-03T04:43:56.469Z,3.50
2022-12-03T04:46:23.182Z,3.90
2022-12-03T04:48:49.969Z,4.10
2022-12-03T04:51:16.727Z,4.30
2022-12-03T04:53:46.313Z,4.40
2022-12-03T04:56:13.265Z,3.70
2022-12-03T04:58:40.142Z,4.10
2022-12-03T05:01:06.909Z,3.80
2022-12-03T05:03:33.677Z,4.30
2022-12-03T05:06:00.411Z,3.80
2022-12-03T05:08:27.086Z,3.80
2022-12-03T05:10:54.676Z,3.60
2022-12-03T05:13:21.430Z,3.90
2022-12-03T05:15:48.063Z,3.90
2022-12-03T05:18:14.772Z,3.80
2022-12-03T05:20:41.421Z,3.80
2022-12-03T05:23:09.560Z,4.20
2022-12-03T05:25:36.677Z,3.50
2022-12-03T05:28:03.831Z,3.80
2022-12-03T05:30:30.679Z,3.90
2022-12-03T05:32:57.556Z,3.90
2022-12-03T05:35:24.486Z,3.80
2022-12-03T05:37:51.265Z,3.80
2022-12-03T05:40:18.369Z,3.90
2022-12-03T05:42:54.356Z,3.70
2022-12-03T05:45:25.861Z,3.70
2022-12-03T05:47:54.166Z,4.10
2022-12-03T05:50:22.695Z,3.50
2022-12-03T05:52:49.667Z,3.90
2022-12-03T05:55:16.664Z,3.90
2022-12-03T05:57:43.487Z,4.20
2022-12-03T06:00:18.357Z,4.00
2022-12-03T06:02:45.269Z,3.80
2022-12-03T06:05:13.557Z,3.70
2022-12-03T06:07:43.547Z,4.00
2022-12-03T06:10:12.851Z,3.80
2022-12-03T06:12:39.907Z,3.90
2022-12-03T06:15:07.353Z,3.50
2022-12-03T06:17:34.216Z,3.50
2022-12-03T06:20:01.071Z,3.80
2022-12-03T06:22:27.783Z,3.50
2022-12-03T06:24:54.684Z,3.70
2022-12-03T06:27:21.556Z,3.90
2022-12-03T06:29:48.221Z,4.00
2022-12-03T06:32:14.911Z,3.70
2022-12-03T06:34:41.650Z,3.80
2022-12-03T06:37:08.408Z,3.40
2022-12-03T06:39:35.140Z,3.80
2022-12-03T06:42:01.918Z,3.50
2022-12-03T06:44:29.860Z,4.20
2022-12-03T06:46:56.644Z,4.20
2022-12-03T06:49:23.432Z,4.70
2022-12-03T06:51:50.140Z,4.80
2022-12-03T06:54:16.880Z,4.20
2022-12-03T06:56:45.610Z,4.20
2022-12-03T06:59:12.745Z,3.70
2022-12-03T07:01:40.742Z,5.60
2022-12-03T07:04:07.420Z,4.30
2022-12-03T07:06:34.140Z,4.50
2022-12-03T07:09:00.847Z,4.30
2022-12-03T07:11:39.771Z,4.80
2022-12-03T07:14:08.364Z,4.60
2022-12-03T07:16:36.065Z,4.50
2022-12-03T07:19:04.585Z,3.90
2022-12-03T07:21:31.546Z,4.00
2022-12-03T07:23:58.403Z,3.90
2022-12-03T07:26:25.387Z,4.30
2022-12-03T07:28:52.087Z,3.60
2022-12-03T07:31:18.846Z,3.70
2022-12-03T07:33:45.644Z,3.60
2022-12-03T07:36:12.380Z,3.80
2022-12-03T07:38:39.309Z,3.80
2022-12-03T07:41:06.188Z,3.50
2022-12-03T07:43:32.982Z,3.10
2022-12-03T07:46:00.790Z,3.40
2022-12-03T07:48:27.894Z,3.60
2022-12-03T07:50:54.797Z,4.40
2022-12-03T07:53:21.774Z,3.40
2022-12-03T07:55:48.562Z,3.60
2022-12-03T07:58:16.333Z,3.70
2022-12-03T08:00:43.114Z,3.50
2022-12-03T08:03:09.958Z,3.90
2022-12-03T08:05:36.808Z,4.00
2022-12-03T08:08:03.695Z,3.80
2022-12-03T08:10:30.437Z,3.50
2022-12-03T08:12:59.121Z,4.40
2022-12-03T08:15:32.223Z,3.70
2022-12-03T08:18:07.992Z,4.00
2022-12-03T08:20:38.998Z,4.10
2022-12-03T08:23:17.780Z,4.00
2022-12-03T08:25:45.714Z,4.10
2022-12-03T08:28:14.111Z,3.90
2022-12-03T08:30:43.583Z,3.40
2022-12-03T08:33:25.878Z,3.70
2022-12-03T08:35:52.773Z,3.90
2022-12-03T08:38:22.642Z,4.30
2022-12-03T08:40:51.678Z,3.50
2022-12-03T08:43:26.501Z,3.50
2022-12-03T08:45:57.759Z,3.80
2022-12-03T08:48:40.684Z,2.90
2022-12-03T08:51:21.699Z,2.80
2022-12-03T08:53:53.297Z,3.20
2022-12-03T08:56:26.557Z,2.80
2022-12-03T08:59:29.287Z,2.90
2022-12-03T09:01:58.132Z,3.40
2022-12-03T09:04:45.240Z,2.90
2022-12-03T09:07:12.095Z,3.20
2022-12-03T09:09:39.390Z,2.90
2022-12-03T09:12:06.375Z,3.10
2022-12-03T09:14:33.169Z,3.00
2022-12-03T09:16:59.930Z,3.40
2022-12-03T09:19:31.203Z,3.40
2022-12-03T09:21:58.157Z,3.00
2022-12-03T09:24:24.916Z,3.10
2022-12-03T09:26:51.705Z,2.90
2022-12-03T09:29:18.473Z,2.80
2022-12-03T09:31:45.445Z,3.50
2022-12-03T09:34:12.422Z,2.80
2022-12-03T09:36:39.520Z,2.60
2022-12-03T09:39:06.337Z,2.70
2022-12-03T09:41:33.060Z,2.70
2022-12-03T09:44:04.339Z,2.90
2022-12-03T09:46:32.280Z,2.80
2022-12-03T09:49:00.290Z,2.50
2022-12-03T09:51:32.865Z,2.50
2022-12-03T09:54:01.139Z,2.30
2022-12-03T09:56:27.985Z,2.60
2022-12-03T09:58:54.869Z,2.80
2022-12-03T10:01:21.961Z,2.60
2022-12-03T10:03:50.903Z,2.70
2022-12-03T10:06:22.861Z,2.70
2022-12-03T10:08:52.803Z,2.80
2022-12-03T10:11:22.655Z,2.80
2022-12-03T10:13:50.169Z,2.50
2022-12-03T10:16:20.718Z,2.60
2022-12-03T10:18:51.181Z,2.80
2022-12-03T10:21:26.477Z,3.10
2022-12-03T10:24:21.739Z,2.60
2022-12-03T10:26:50.430Z,3.10
2022-12-03T10:29:31.369Z,2.90
2022-12-03T10:32:02.744Z,2.80
2022-12-03T10:34:31.124Z,2.60
2022-12-03T10:37:17.235Z,3.00
2022-12-03T10:40:01.550Z,2.70
2022-12-03T10:42:31.253Z,2.90
2022-12-03T10:45:20.153Z,2.70
2022-12-03T10:48:11.544Z,2.70
2022-12-03T10:50:53.245Z,2.50
2022-12-03T10:53:22.430Z,2.80
2022-12-03T10:55:51.489Z,2.60
2022-12-03T10:58:45.442Z,2.90
2022-12-03T11:01:21.017Z,2.50
2022-12-03T11:03:49.641Z,2.90
2022-12-03T11:06:22.926Z,2.60
2022-12-03T11:08:58.379Z,2.80
2022-12-03T11:11:29.427Z,2.70
2022-12-03T11:14:01.330Z,2.80
2022-12-03T11:16:40.418Z,2.80
2022-12-03T11:19:13.300Z,3.20
2022-12-03T11:22:09.979Z,2.90
2022-12-03T11:24:39.239Z,2.80
2022-12-03T11:27:16.216Z,2.70
2022-12-03T11:29:58.265Z,2.40
2022-12-03T11:32:42.847Z,2.30
2022-12-03T11:35:14.091Z,2.60
2022-12-03T11:37:41.120Z,2.30
2022-12-03T11:40:16.961Z,3.40
2022-12-03T11:42:45.552Z,2.70
2022-12-03T11:45:33.372Z,2.60
2022-12-03T11:48:00.010Z,3.10
2022-12-03T11:50:43.646Z,2.80
2022-12-03T11:53:13.411Z,3.00
2022-12-03T11:55:52.122Z,2.50
2022-12-03T11:58:27.290Z,2.30
2022-12-03T12:01:02.663Z,2.30
2022-12-03T12:03:33.322Z,2.70
2022-12-03T12:06:07.137Z,2.80
2022-12-03T12:08:35.823Z,2.60
2022-12-03T12:11:03.701Z,2.50
2022-12-03T12:13:36.387Z,2.60
2022-12-03T12:16:07.949Z,2.80
2022-12-03T12:18:37.048Z,2.50
2022-12-03T12:21:42.118Z,2.70
2022-12-03T12:24:40.631Z,3.40
2022-12-03T12:27:09.235Z,2.90
2022-12-03T12:29:37.517Z,2.80
2022-12-03T12:32:50.084Z,2.70
2022-12-03T12:35:25.738Z,2.60
2022-12-03T12:38:08.624Z,2.80
2022-12-03T12:40:38.518Z,3.00
2022-12-03T12:43:14.431Z,3.00
2022-12-03T12:45:45.262Z,3.00
2022-12-03T12:48:23.627Z,2.30
2022-12-03T12:51:18.642Z,2.30
2022-12-03T12:53:45.588Z,2.20
2022-12-03T12:56:32.647Z,2.60
2022-12-03T12:59:10.225Z,3.10
2022-12-03T13:01:37.440Z,2.90
2022-12-03T13:04:14.885Z,2.20
2022-12-03T13:06:42.478Z,2.30
2022-12-03T13:09:25.807Z,2.40
2022-12-03T13:12:07.361Z,2.60
2022-12-03T13:14:37.022Z,2.10
2022-12-03T13:17:22.483Z,2.20
2022-12-03T13:19:55.869Z,2.30
2022-12-03T13:22:30.512Z,2.70
2022-12-03T13:24:58.674Z,2.40
2022-12-03T13:27:30.370Z,2.40
2022-12-03T13:30:07.305Z,1.80
2022-12-03T13:32:37.509Z,2.30
2022-12-03T13:35:31.700Z,2.50
2022-12-03T13:37:59.169Z,2.80
2022-12-03T13:40:32.875Z,2.70
2022-12-03T13:43:19.221Z,2.50
2022-12-03T13:45:48.320Z,2.60
2022-12-03T13:48:21.679Z,2.10
2022-12-03T13:50:48.926Z,2.30
2022-12-03T13:53:26.738Z,2.70
2022-12-03T13:56:27.509Z,2.00
2022-12-03T13:58:55.168Z,1.70
2022-12-03T14:01:22.051Z,1.60
2022-12-03T14:03:49.439Z,1.70
2022-12-03T14:06:17.506Z,1.90
2022-12-03T14:08:44.450Z,2.30
2022-12-03T14:11:34.653Z,2.80
2022-12-03T14:14:01.367Z,2.20
2022-12-03T14:16:30.756Z,2.30
2022-12-03T14:18:57.554Z,2.20
2022-12-03T14:21:24.251Z,2.20
2022-12-03T14:23:50.910Z,2.20
2022-12-03T14:26:17.731Z,1.90
2022-12-03T14:28:44.587Z,1.80
2022-12-03T14:31:11.588Z,2.40
2022-12-03T14:33:38.421Z,2.30
2022-12-03T14:36:05.405Z,2.30
2022-12-03T14:38:32.213Z,2.40
2022-12-03T14:40:58.901Z,2.40
2022-12-03T14:43:25.682Z,1.90
2022-12-03T14:45:52.390Z,1.90
2022-12-03T14:48:19.137Z,1.70
2022-12-03T14:50:45.891Z,2.50
2022-12-03T14:53:12.652Z,2.60
2022-12-03T14:55:40.837Z,2.40
2022-12-03T14:58:07.647Z,2.40
2022-12-03T15:00:34.338Z,2.20
2022-12-03T15:03:01.169Z,2.10
2022-12-03T15:05:29.059Z,2.20
2022-12-03T15:07:56.418Z,2.40
2022-12-03T15:10:23.188Z,2.20
2022-12-03T15:12:49.880Z,2.40
2022-12-03T15:15:16.722Z,2.00
2022-12-03T15:17:45.672Z,1.90
2022-12-03T15:20:12.935Z,2.00
2022-12-03T15:22:39.624Z,2.00
2022-12-03T15:25:08.746Z,2.40
2022-12-03T15:27:35.757Z,2.50
2022-12-03T15:30:02.429Z,2.50
2022-12-03T15:32:29.117Z,2.00
2022-12-03T15:34:55.783Z,2.60
2022-12-03T15:37:22.451Z,2.20
2022-12-03T15:39:49.304Z,2.10
2022-12-03T15:42:16.237Z,1.80
2022-12-03T15:44:42.900Z,2.00
2022-12-03T15:47:09.592Z,2.30
2022-12-03T15:49:36.356Z,2.80
2022-12-03T15:52:03.212Z,2.00
2022-12-03T15:54:29.928Z,2.10
2022-12-03T15:56:57.581Z,2.20
2022-12-03T15:59:24.818Z,2.50
2022-12-03T16:01:51.546Z,2.50
2022-12-03T16:04:18.398Z,1.90
2022-12-03T16:06:45.096Z,1.70
2022-12-03T16:09:11.816Z,1.70
2022-12-03T16:11:39.533Z,1.80
2022-12-03T16:14:06.212Z,2.20
2022-12-03T16:16:32.939Z,2.10
2022-12-03T16:18:59.890Z,2.00
2022-12-03T16:21:27.489Z,2.20
2022-12-03T16:23:55.370Z,2.30
2022-12-03T16:26:22.463Z,1.60
2022-12-03T16:28:49.297Z,1.60
2022-12-03T16:31:16.055Z,2.50
2022-12-03T16:33:42.784Z,1.70
2022-12-03T16:36:09.715Z,1.70
2022-12-03T16:38:36.465Z,2.20
2022-12-03T16:41:03.230Z,1.90
2022-12-03T16:43:30.457Z,1.50
2022-12-03T16:46:19.936Z,2.20
2022-12-03T16:48:48.268Z,1.70
2022-12-03T16:51:15.574Z,2.00
2022-12-03T16:53:42.507Z,1.70
2022-12-03T16:56:09.227Z,2.50
2022-12-03T16:58:38.416Z,1.90
2022-12-03T17:01:05.424Z,1.80
2022-12-03T17:03:34.043Z,2.30
2022-12-03T17:06:01.687Z,1.80
2022-12-03T17:08:28.551Z,2.70
2022-12-03T17:10:55.362Z,2.00
2022-12-03T17:13:23.235Z,2.00
2022-12-03T17:15:50.804Z,2.40
2022-12-03T17:18:17.689Z,2.00
2022-12-03T17:20:44.405Z,1.90
2022-12-03T17:23:11.892Z,2.20
2022-12-03T17:25:38.686Z,2.40
2022-12-03T17:28:05.629Z,2.20
2022-12-03T17:30:32.476Z,1.70
2022-12-03T17:32:59.213Z,2.00
2022-12-03T17:35:26.762Z,2.30
2022-12-03T17:37:53.528Z,1.80
2022-12-03T17:40:20.419Z,1.50
2022-12-03T17:42:47.105Z,1.90
2022-12-03T17:45:14.099Z,2.80
2022-12-03T17:47:40.990Z,1.90
2022-12-03T17:50:08.826Z,1.90
2022-12-03T17:52:35.518Z,2.80
2022-12-03T17:55:12.853Z,2.10
2022-12-03T17:57:41.183Z,1.60
2022-12-03T18:00:08.859Z,2.10
2022-12-03T18:02:35.534Z,2.30
2022-12-03T18:05:02.265Z,2.50
2022-12-03T18:07:44.356Z,1.90
2022-12-03T18:10:11.300Z,2.40
2022-12-03T18:12:37.991Z,2.20
2022-12-03T18:15:05.604Z,2.30
2022-12-03T18:17:32.304Z,2.50
2022-12-03T18:20:00.227Z,2.30
2022-12-03T18:22:28.165Z,2.20
2022-12-03T18:24:55.506Z,2.50
2022-12-03T18:27:22.653Z,2.50
2022-12-03T18:29:49.644Z,1.80
2022-12-03T18:32:28.236Z,2.50
2022-12-03T18:34:57.028Z,3.20
2022-12-03T18:37:27.222Z,2.80
2022-12-03T18:39:54.841Z,2.10
2022-12-03T18:42:22.882Z,1.80
2022-12-03T18:44:53.512Z,2.10
2022-12-03T18:47:32.957Z,2.70
2022-12-03T18:49:59.756Z,3.20
2022-12-03T18:52:26.538Z,2.20
2022-12-03T18:54:55.344Z,2.70
2022-12-03T18:57:22.207Z,2.40
2022-12-03T18:59:49.180Z,2.00
2022-12-03T19:02:53.839Z,2.20
2022-12-03T19:05:06.707Z,1.90
2022-12-03T19:07:33.567Z,2.40
2022-12-03T19:10:00.312Z,2.70
2022-12-03T19:12:27.090Z,2.40
2022-12-03T19:14:53.792Z,2.40
2022-12-03T19:17:21.774Z,2.00
2022-12-03T19:19:49.519Z,3.10
2022-12-03T19:22:16.197Z,3.00
2022-12-03T19:24:43.723Z,2.90
2022-12-03T19:27:10.407Z,2.50
2022-12-03T19:29:37.131Z,2.20
2022-12-03T19:32:04.056Z,2.40
2022-12-03T19:34:30.915Z,2.20
2022-12-03T19:36:57.706Z,2.40
2022-12-03T19:39:24.818Z,2.50
2022-12-03T19:41:51.550Z,2.60
2022-12-03T19:44:19.052Z,2.40
2022-12-03T19:46:45.752Z,2.00
2022-12-03T19:49:12.523Z,2.30
2022-12-03T19:51:40.414Z,2.30
2022-12-03T19:54:10.457Z,1.60
2022-12-03T19:56:37.869Z,2.60
2022-12-03T19:59:05.219Z,2.40
2022-12-03T20:01:35.599Z,2.60
2022-12-03T20:04:03.842Z,2.30
2022-12-03T20:06:33.686Z,2.20
2022-12-03T20:09:03.701Z,2.20
2022-12-03T20:11:32.585Z,2.00
2022-12-03T20:14:01.929Z,2.60
2022-12-03T20:16:30.076Z,2.80
2022-12-03T20:18:59.727Z,2.40
2022-12-03T20:21:28.453Z,2.50
2022-12-03T20:23:56.336Z,2.20
2022-12-03T20:26:23.624Z,2.30
2022-12-03T20:28:52.653Z,2.00
2022-12-03T20:31:22.404Z,1.90
2022-12-03T20:33:51.824Z,2.70
2022-12-03T20:36:20.915Z,2.00
2022-12-03T20:38:47.732Z,2.10
2022-12-03T20:41:18.381Z,2.50
2022-12-03T20:43:45.554Z,2.50
2022-12-03T20:46:32.447Z,2.30
2022-12-03T20:48:59.835Z,2.40
2022-12-03T20:51:29.664Z,2.30
2022-12-03T20:53:57.425Z,2.30
2022-12-03T20:56:31.165Z,1.90
2022-12-03T20:59:06.683Z,1.70
2022-12-03T21:01:34.419Z,1.80
2022-12-03T21:04:02.446Z,2.00
2022-12-03T21:06:30.086Z,2.00
2022-12-03T21:08:58.992Z,2.30
2022-12-03T21:11:29.439Z,2.20
2022-12-03T21:13:56.850Z,2.20
2022-12-03T21:17:06.572Z,2.50
2022-12-03T21:19:20.953Z,1.90
2022-12-03T21:21:48.323Z,1.90
2022-12-03T21:24:15.081Z,1.60
2022-12-03T21:26:42.004Z,2.10
2022-12-03T21:29:08.839Z,1.70
2022-12-03T21:31:37.306Z,2.40
2022-12-03T21:34:05.053Z,2.70
2022-12-03T21:36:32.320Z,2.10
2022-12-03T21:38:59.010Z,2.40
2022-12-03T21:41:26.185Z,1.80
2022-12-03T21:43:52.957Z,2.20
2022-12-03T21:47:10.609Z,1.90
2022-12-03T21:49:06.696Z,2.20
2022-12-03T21:51:34.659Z,2.80
2022-12-03T21:54:01.454Z,2.70
2022-12-03T21:56:30.788Z,2.30
2022-12-03T21:58:57.849Z,2.70
2022-12-03T22:01:27.760Z,3.40
2022-12-03T22:03:54.629Z,2.70
2022-12-03T22:06:21.955Z,2.00
2022-12-03T22:08:49.315Z,1.70
2022-12-03T22:11:19.353Z,2.10
2022-12-03T22:13:47.175Z,3.10
2022-12-03T22:16:17.424Z,2.50
2022-12-03T22:18:44.630Z,2.10
2022-12-03T22:21:13.859Z,2.60
2022-12-03T22:23:41.200Z,2.20
2022-12-03T22:26:10.631Z,1.90
2022-12-03T22:28:37.517Z,1.80
2022-12-03T22:31:08.702Z,1.60
2022-12-03T22:33:36.736Z,2.20
2022-12-03T22:36:08.255Z,2.40
2022-12-03T22:38:37.377Z,2.70
2022-12-03T22:41:12.392Z,2.10
2022-12-03T22:43:39.160Z,1.90
2022-12-03T22:46:07.468Z,1.90
2022-12-03T22:48:35.174Z,2.30
2022-12-03T22:51:02.034Z,2.40
2022-12-03T22:53:29.092Z,2.30
2022-12-03T22:55:59.917Z,1.50
2022-12-03T22:58:27.843Z,1.80
2022-12-03T23:00:59.777Z,2.50
2022-12-03T23:03:29.417Z,2.80
2022-12-03T23:05:59.031Z,2.70
2022-12-03T23:08:25.789Z,2.50
2022-12-03T23:10:54.364Z,1.60
2022-12-03T23:13:22.619Z,2.20
2022-12-03T23:15:52.465Z,2.80
2022-12-03T23:18:20.040Z,2.50
2022-12-03T23:20:57.388Z,2.70
2022-12-03T23:23:27.022Z,2.10
2022-12-03T23:26:02.761Z,2.60
2022-12-03T23:28:30.987Z,2.20
2022-12-03T23:30:58.016Z,2.40
2022-12-03T23:33:25.735Z,2.40
2022-12-03T23:35:52.489Z,2.30
2022-12-03T23:38:19.618Z,2.40
2022-12-03T23:40:48.265Z,1.60
2022-12-03T23:43:19.166Z,1.50
2022-12-03T23:45:45.903Z,2.40
2022-12-03T23:48:12.934Z,2.10
2022-12-03T23:50:41.244Z,1.90
2022-12-03T23:53:08.451Z,2.00
2022-12-03T23:55:39.930Z,2.20
2022-12-03T23:58:06.688Z,2.20
